Terminal Aerodrome Forecast
Issued by NWS Wilmington, OH

Current Version | Previous Version | Graphics & Text | Print | Product List | Glossary On
Versions: 1 2 3 4 5 6 7 8 9 10 11 12 13 14 15 16 17
000
FTUS41 KILN 011100
TAFCMH
TAF
KCMH 011137Z 0112/0212 30005KT 3SM BR BKN004
     FM011300 30005KT 4SM BR SCT010 SCT040
      TEMPO 0113/0115 BKN010
     FM011500 32007KT P6SM SCT040
     FM020000 35004KT P6SM SCT050 BKN250
     FM020800 04004KT P6SM SCT050 BKN250=

USA.gov is the U.S. government's official web portal to all federal, state and local government web resources and services.